Time;durP1;ratioP1;P1;durP2;ratioP2;P2;SDS_P1;SDS_P2;PMS_P1;PMS_P2;Temp;Humidity;BMP_temperature;BMP_pressure;BME280_temperature;BME280_humidity;BME280_pressure;Samples;Min_cycle;Max_cycle;Signal;HPM_P1;HPM_P2
2023/07/02 00:02:22;;;;;;;10.20;7.68;;;;;;;22.90;100.00;99597.97;5049433;28;20037;-79
2023/07/02 00:04:48;;;;;;;9.43;7.70;;;;;;;23.27;99.66;99622.41;5049132;28;20029;-75
2023/07/02 00:07:14;;;;;;;10.38;7.32;;;;;;;23.03;99.48;99585.31;5032430;28;20037;-78
2023/07/02 00:09:40;;;;;;;8.82;7.93;;;;;;;23.10;99.95;99609.69;5049480;28;20076;-81
2023/07/02 00:12:06;;;;;;;9.13;7.40;;;;;;;23.17;99.86;99610.41;5049535;28;20056;-78
2023/07/02 00:14:31;;;;;;;11.15;7.38;;;;;;;23.29;99.14;99625.88;5054890;28;20037;-79
2023/07/02 00:16:57;;;;;;;8.38;7.53;;;;;;;23.39;98.36;99622.06;5090571;28;20032;-77
2023/07/02 00:19:23;;;;;;;10.07;7.85;;;;;;;23.09;99.10;99608.84;5091816;28;20020;-76
2023/07/02 00:21:48;;;;;;;10.23;7.35;;;;;;;23.06;99.87;99613.31;5091746;28;20028;-77
2023/07/02 00:24:15;;;;;;;9.13;7.80;;;;;;;22.74;100.00;99597.53;5092064;28;20027;-77
2023/07/02 00:26:41;;;;;;;11.23;7.82;;;;;;;22.60;100.00;99599.66;5091779;28;20480;-76
2023/07/02 00:29:08;;;;;;;9.80;8.07;;;;;;;22.36;100.00;99601.13;5092016;28;20185;-75
2023/07/02 00:31:33;;;;;;;7.88;7.07;;;;;;;22.45;100.00;99600.91;5091743;28;20047;-75
2023/07/02 00:34:00;;;;;;;11.50;8.07;;;;;;;22.61;100.00;99604.00;5073431;28;20482;-75
2023/07/02 00:36:26;;;;;;;10.40;8.00;;;;;;;22.83;100.00;99614.84;5073591;28;20451;-77
2023/07/02 00:38:52;;;;;;;9.38;7.65;;;;;;;22.84;100.00;99598.13;5091769;28;20027;-75
2023/07/02 00:41:18;;;;;;;10.40;8.10;;;;;;;22.78;100.00;99600.94;5085443;28;20426;-76
2023/07/02 00:43:44;;;;;;;9.70;7.82;;;;;;;22.86;100.00;99608.63;5084444;28;20032;-74
2023/07/02 00:46:10;;;;;;;9.90;7.65;;;;;;;22.87;100.00;99589.28;5091495;28;20035;-72
2023/07/02 00:48:35;;;;;;;9.20;7.95;;;;;;;22.99;100.00;99591.59;5091383;28;20115;-77
2023/07/02 00:51:01;;;;;;;8.57;6.95;;;;;;;22.84;100.00;99568.31;5090959;28;20016;-78
2023/07/02 00:53:26;;;;;;;11.45;7.88;;;;;;;22.86;100.00;99577.88;5091557;28;20034;-76
2023/07/02 00:55:52;;;;;;;10.45;8.10;;;;;;;22.94;99.71;99589.06;5091260;28;20077;-76
2023/07/02 00:58:20;;;;;;;10.88;8.07;;;;;;;23.10;98.88;99602.66;5091555;28;20098;-77
2023/07/02 01:00:47;;;;;;;9.37;7.80;;;;;;;23.19;98.13;99603.31;5091416;28;20029;-72
2023/07/02 01:03:12;;;;;;;9.82;7.55;;;;;;;23.18;97.25;99591.94;5091105;28;20024;-71
2023/07/02 01:05:38;;;;;;;21.75;7.80;;;;;;;23.09;97.72;99611.47;5090959;28;20081;-74
2023/07/02 01:08:04;;;;;;;8.10;6.97;;;;;;;22.97;98.84;99614.44;5091196;28;20031;-73
2023/07/02 01:10:31;;;;;;;8.88;7.15;;;;;;;22.70;99.97;99606.38;5091109;28;20034;-74
2023/07/02 01:12:59;;;;;;;12.10;8.18;;;;;;;22.50;100.00;99612.19;5091020;28;20028;-72
2023/07/02 01:15:25;;;;;;;10.93;7.88;;;;;;;22.43;100.00;99592.19;5073061;28;20039;-73
2023/07/02 01:17:52;;;;;;;12.00;8.18;;;;;;;22.37;100.00;99610.72;5091200;28;20043;-76
2023/07/02 01:20:19;;;;;;;11.27;7.82;;;;;;;22.13;100.00;99558.75;5090316;28;20027;-76
2023/07/02 01:22:48;;;;;;;9.18;7.35;;;;;;;22.57;100.00;99599.75;5077608;28;20039;-76
2023/07/02 01:25:15;;;;;;;11.35;7.75;;;;;;;22.62;100.00;99598.72;5064485;28;20107;-74
2023/07/02 01:27:41;;;;;;;10.27;8.10;;;;;;;22.47;100.00;99599.13;5090496;28;20478;-76
2023/07/02 01:30:08;;;;;;;10.32;8.10;;;;;;;22.49;100.00;99602.56;5090500;28;20039;-75
2023/07/02 01:32:34;;;;;;;10.48;7.72;;;;;;;22.40;100.00;99598.41;5071021;28;20418;-76
2023/07/02 01:35:00;;;;;;;11.48;8.30;;;;;;;22.44;100.00;99599.19;5090742;28;20031;-74
2023/07/02 01:37:26;;;;;;;11.02;8.25;;;;;;;22.29;100.00;99577.63;5090094;28;20047;-73
2023/07/02 01:39:51;;;;;;;9.80;8.27;;;;;;;22.38;100.00;99602.84;5076323;28;20448;-73
2023/07/02 01:42:18;;;;;;;9.65;7.97;;;;;;;22.35;100.00;99609.94;5070712;28;20080;-76
2023/07/02 01:44:46;;;;;;;12.30;9.00;;;;;;;22.39;100.00;99628.25;5070623;28;20093;-76
2023/07/02 01:47:12;;;;;;;9.10;8.20;;;;;;;22.41;100.00;99621.19;5070675;28;20041;-74
2023/07/02 01:49:37;;;;;;;9.70;8.27;;;;;;;22.23;100.00;99576.91;5070676;28;20411;-79
2023/07/02 01:52:04;;;;;;;11.82;8.20;;;;;;;22.38;100.00;99609.88;5086030;28;20029;-76
2023/07/02 01:54:34;;;;;;;11.38;8.77;;;;;;;22.27;100.00;99612.75;5070746;28;20063;-75
2023/07/02 01:56:59;;;;;;;;;;;;;;;22.22;100.00;99611.97;5071034;28;20035;-79
2023/07/02 01:59:25;;;;;;;13.15;8.50;;;;;;;22.09;100.00;99593.03;5070979;28;19906;-74
2023/07/02 02:01:50;;;;;;;11.63;8.00;;;;;;;22.06;100.00;99580.81;5070467;28;20028;-74
2023/07/02 02:04:16;;;;;;;11.50;8.90;;;;;;;21.88;100.00;99578.66;5070856;28;20029;-75
2023/07/02 02:06:42;;;;;;;11.98;9.07;;;;;;;21.70;100.00;99612.31;5085974;28;20031;-74
2023/07/02 02:09:09;;;;;;;13.13;9.35;;;;;;;21.10;100.00;99569.81;5070244;28;20533;-76
2023/07/02 02:11:38;;;;;;;9.98;8.15;;;;;;;21.50;100.00;99605.72;5070299;28;20553;-76
2023/07/02 02:14:04;;;;;;;11.85;9.57;;;;;;;21.52;100.00;99613.59;5070217;28;20032;-73
2023/07/02 02:16:30;;;;;;;11.38;9.30;;;;;;;21.49;100.00;99613.63;5086232;28;20475;-75
2023/07/02 02:18:55;;;;;;;13.70;9.70;;;;;;;21.47;100.00;99615.41;5070401;28;20398;-72
2023/07/02 02:21:21;;;;;;;18.83;10.00;;;;;;;21.50;100.00;99616.22;5070370;28;20028;-72
2023/07/02 02:23:47;;;;;;;16.10;9.85;;;;;;;21.53;100.00;99611.81;5070683;28;20383;-74
2023/07/02 02:26:13;;;;;;;13.55;9.82;;;;;;;21.67;100.00;99606.28;5070487;28;20017;-72
2023/07/02 02:28:38;;;;;;;10.63;9.02;;;;;;;21.71;100.00;99602.66;5070263;28;20032;-72
2023/07/02 02:31:04;;;;;;;11.73;9.20;;;;;;;21.51;100.00;99556.72;5070346;28;20044;-77
2023/07/02 02:33:30;;;;;;;17.77;10.52;;;;;;;21.40;100.00;99556.94;5070261;28;20510;-78
2023/07/02 02:35:55;;;;;;;12.93;9.43;;;;;;;21.57;100.00;99596.00;5069943;28;20036;-74
2023/07/02 02:38:21;;;;;;;12.55;9.68;;;;;;;21.68;100.00;99605.38;5070340;28;20040;-74
2023/07/02 02:40:46;;;;;;;12.85;9.55;;;;;;;21.72;100.00;99597.41;5071737;28;20051;-71
2023/07/02 02:43:12;;;;;;;12.02;9.75;;;;;;;21.78;100.00;99599.00;5073891;28;20498;-72
2023/07/02 02:45:38;;;;;;;11.05;9.43;;;;;;;21.85;100.00;99612.88;5074420;28;20505;-72
2023/07/02 02:48:04;;;;;;;12.88;9.65;;;;;;;21.89;100.00;99617.16;5074175;28;20021;-76
2023/07/02 02:50:29;;;;;;;13.25;9.88;;;;;;;21.91;100.00;99616.22;5074209;28;20036;-72
2023/07/02 02:52:54;;;;;;;14.07;9.30;;;;;;;21.90;100.00;99617.13;5073889;28;20032;-71
2023/07/02 02:55:20;;;;;;;11.90;9.25;;;;;;;21.76;100.00;99593.81;5073902;28;20052;-72
2023/07/02 02:57:45;;;;;;;14.48;9.68;;;;;;;21.84;100.00;99630.41;5071351;28;20041;-72
2023/07/02 03:00:11;;;;;;;11.20;8.98;;;;;;;21.89;100.00;99639.03;5073543;28;20035;-74
2023/07/02 03:02:37;;;;;;;15.00;9.32;;;;;;;21.96;100.00;99640.63;5072090;28;20029;-77
2023/07/02 03:05:03;;;;;;;14.93;9.30;;;;;;;21.94;100.00;99629.31;5073836;28;20028;-76
2023/07/02 03:07:29;;;;;;;13.60;9.05;;;;;;;22.03;100.00;99636.13;5073429;28;20119;-74
2023/07/02 03:09:55;;;;;;;14.25;9.30;;;;;;;21.81;100.00;99596.34;5073572;28;20485;-74
2023/07/02 03:12:20;;;;;;;11.23;9.07;;;;;;;22.02;100.00;99626.50;5073473;28;20021;-76
2023/07/02 03:14:47;;;;;;;13.32;10.02;;;;;;;21.94;100.00;99631.06;5073376;28;20094;-76
2023/07/02 03:17:13;;;;;;;12.70;9.85;;;;;;;21.86;100.00;99625.97;5073136;28;20068;-74
2023/07/02 03:19:38;;;;;;;14.07;9.85;;;;;;;21.80;100.00;99616.47;5072761;28;20052;-75
2023/07/02 03:22:04;;;;;;;11.00;9.88;;;;;;;21.82;100.00;99634.84;5063203;28;20040;-76
2023/07/02 03:24:29;;;;;;;14.60;10.35;;;;;;;21.85;100.00;99628.66;5073120;28;20021;-79
2023/07/02 03:26:55;;;;;;;14.05;9.73;;;;;;;21.75;100.00;99618.34;5073000;28;20036;-78
2023/07/02 03:29:20;;;;;;;11.30;9.48;;;;;;;21.79;100.00;99641.03;5089063;28;20043;-74
2023/07/02 03:31:46;;;;;;;15.40;10.50;;;;;;;21.76;100.00;99645.50;5073494;28;20112;-74
2023/07/02 03:34:12;;;;;;;12.68;10.02;;;;;;;21.77;100.00;99626.19;5073028;28;20547;-73
2023/07/02 03:36:37;;;;;;;13.57;9.90;;;;;;;21.74;100.00;99629.75;5088742;28;20033;-75
2023/07/02 03:39:04;;;;;;;11.18;10.00;;;;;;;21.73;100.00;99625.41;5073014;28;20406;-75
2023/07/02 03:41:29;;;;;;;12.23;9.93;;;;;;;21.75;100.00;99620.97;5073065;28;20109;-74
2023/07/02 03:43:54;;;;;;;12.77;9.55;;;;;;;21.80;100.00;99619.09;5073190;28;20120;-77
2023/07/02 03:46:20;;;;;;;12.25;10.38;;;;;;;21.76;100.00;99603.47;5073291;28;20050;-75
2023/07/02 03:48:46;;;;;;;13.30;10.40;;;;;;;22.00;100.00;99635.31;5073175;28;20041;-75
2023/07/02 03:51:14;;;;;;;12.70;9.88;;;;;;;21.95;100.00;99619.66;5072601;28;20027;-72
2023/07/02 03:53:40;;;;;;;15.05;10.05;;;;;;;21.94;100.00;99629.31;5072755;28;20086;-75
2023/07/02 03:56:06;;;;;;;12.45;9.30;;;;;;;21.81;100.00;99622.59;5072768;28;20471;-78
2023/07/02 03:58:31;;;;;;;12.43;8.98;;;;;;;21.73;99.72;99620.16;5072628;28;20024;-73
2023/07/02 04:00:57;;;;;;;11.68;9.60;;;;;;;21.69;100.00;99631.63;5072715;28;20071;-73
2023/07/02 04:03:22;;;;;;;13.93;10.57;;;;;;;21.69;100.00;99638.66;5072953;28;20036;-75
2023/07/02 04:05:48;;;;;;;14.88;10.82;;;;;;;21.68;100.00;99644.78;5072256;28;20414;-72
2023/07/02 04:08:13;;;;;;;16.20;10.35;;;;;;;21.55;100.00;99641.53;5072493;28;20090;-74
2023/07/02 04:10:38;;;;;;;14.55;11.32;;;;;;;21.55;100.00;99628.41;5072238;28;20453;-76
2023/07/02 04:13:04;;;;;;;15.73;11.73;;;;;;;21.23;100.00;99596.66;5072604;28;20068;-75
2023/07/02 04:15:30;;;;;;;12.05;10.65;;;;;;;21.39;100.00;99635.75;5072206;28;20028;-77
2023/07/02 04:17:56;;;;;;;14.20;10.40;;;;;;;21.53;100.00;99636.31;5072337;28;20082;-76
2023/07/02 04:20:21;;;;;;;12.95;10.40;;;;;;;21.60;100.00;99637.09;5072726;28;20028;-73
2023/07/02 04:22:46;;;;;;;12.38;11.07;;;;;;;21.63;100.00;99631.75;5072299;28;20028;-77
2023/07/02 04:25:16;;;;;;;11.23;9.90;;;;;;;21.60;100.00;99609.03;5072202;28;20028;-76
2023/07/02 04:27:42;;;;;;;14.98;11.82;;;;;;;21.81;100.00;99635.75;5072031;28;20044;-79
2023/07/02 04:30:09;;;;;;;13.98;11.43;;;;;;;21.87;100.00;99639.97;5072390;28;20036;-77
2023/07/02 04:32:35;;;;;;;13.23;10.30;;;;;;;21.86;100.00;99643.50;5072150;28;20149;-73
2023/07/02 04:35:02;;;;;;;11.80;9.82;;;;;;;21.91;100.00;99646.91;5071902;28;20399;-74
2023/07/02 04:37:28;;;;;;;14.13;10.23;;;;;;;21.58;100.00;99633.63;5072291;28;20067;-77
2023/07/02 04:39:54;;;;;;;14.88;10.52;;;;;;;21.26;100.00;99627.25;5071370;28;20056;-74
2023/07/02 04:42:19;;;;;;;13.60;9.57;;;;;;;21.12;100.00;99638.91;5072131;28;20028;-72
2023/07/02 04:44:45;;;;;;;14.38;10.80;;;;;;;21.26;100.00;99658.75;5054040;28;20036;-72
2023/07/02 04:47:10;;;;;;;10.52;9.13;;;;;;;21.38;100.00;99650.63;5071994;28;20059;-72
2023/07/02 04:49:36;;;;;;;13.13;9.55;;;;;;;21.56;100.00;99659.91;5071719;28;20111;-76
2023/07/02 04:52:01;;;;;;;12.65;9.10;;;;;;;21.43;100.00;99638.28;5072020;28;20021;-75
2023/07/02 04:54:27;;;;;;;12.73;9.13;;;;;;;21.34;100.00;99617.47;5071423;28;20032;-71
2023/07/02 04:56:52;;;;;;;13.68;9.43;;;;;;;21.68;100.00;99664.03;5035919;28;20143;-72
2023/07/02 04:59:20;;;;;;;12.00;8.50;;;;;;;21.63;100.00;99660.63;5071574;28;20032;-76
2023/07/02 05:01:48;;;;;;;11.73;8.95;;;;;;;21.65;100.00;99661.47;5071409;28;20025;-71
2023/07/02 05:04:14;;;;;;;13.68;9.50;;;;;;;21.64;100.00;99659.75;5070779;28;20031;-74
2023/07/02 05:06:39;;;;;;;13.93;9.80;;;;;;;21.71;100.00;99666.59;5071646;28;20111;-75
2023/07/02 05:09:05;;;;;;;9.68;8.68;;;;;;;21.79;100.00;99679.56;5070970;28;20099;-75
2023/07/02 05:11:30;;;;;;;10.00;9.00;;;;;;;21.77;100.00;99686.59;5052508;28;20465;-76
2023/07/02 05:13:56;;;;;;;12.30;8.13;;;;;;;21.80;99.09;99687.41;5071366;28;20027;-72
2023/07/02 05:16:21;;;;;;;12.15;8.25;;;;;;;21.94;98.36;99695.00;5071247;28;20024;-77
2023/07/02 05:18:47;;;;;;;9.50;8.35;;;;;;;22.05;98.07;99694.75;5071342;28;20078;-73
2023/07/02 05:21:17;;;;;;;11.13;7.93;;;;;;;22.19;97.63;99693.56;5071003;28;20051;-74
2023/07/02 05:23:42;;;;;;;13.27;9.00;;;;;;;22.26;98.90;99701.28;5070766;28;20403;-75
2023/07/02 05:26:08;;;;;;;12.23;8.68;;;;;;;22.36;96.56;99699.28;5071237;28;20021;-75
2023/07/02 05:28:33;;;;;;;11.82;8.38;;;;;;;22.38;95.78;99679.13;5053282;28;20489;-77
2023/07/02 05:30:59;;;;;;;10.70;8.35;;;;;;;22.60;95.44;99684.72;5071184;28;20032;-75
2023/07/02 05:33:24;;;;;;;12.30;8.13;;;;;;;22.54;95.12;99681.34;5070794;28;20025;-75
2023/07/02 05:35:49;;;;;;;14.45;8.32;;;;;;;22.66;95.46;99688.09;5070771;28;20035;-73
2023/07/02 05:38:15;;;;;;;12.32;7.70;;;;;;;22.37;92.82;99664.25;5070945;28;20036;-75
2023/07/02 05:40:41;;;;;;;11.15;8.43;;;;;;;22.53;94.88;99692.78;5070690;28;20044;-78
2023/07/02 05:43:06;;;;;;;9.82;7.75;;;;;;;22.43;95.13;99702.66;5070689;28;20116;-78
2023/07/02 05:45:32;;;;;;;9.80;7.72;;;;;;;22.20;94.68;99687.41;5070812;28;20046;-78
2023/07/02 05:47:57;;;;;;;10.18;8.20;;;;;;;22.44;94.50;99710.53;5070868;28;20115;-78
2023/07/02 05:50:23;;;;;;;8.38;7.20;;;;;;;22.58;93.08;99725.97;5070986;28;20382;-74
2023/07/02 05:52:48;;;;;;;10.02;7.30;;;;;;;22.63;92.78;99707.44;5070621;28;20085;-74
2023/07/02 05:55:14;;;;;;;11.93;7.90;;;;;;;22.61;93.83;99719.78;5070397;28;20483;-78
2023/07/02 05:57:39;;;;;;;11.68;7.97;;;;;;;22.57;94.37;99705.81;5070734;28;20024;-74
2023/07/02 06:00:05;;;;;;;12.23;7.82;;;;;;;22.52;95.61;99701.56;5070524;28;20021;-77
2023/07/02 06:02:31;;;;;;;9.65;8.48;;;;;;;22.52;96.17;99702.44;5070405;28;20028;-77
2023/07/02 06:04:57;;;;;;;11.75;7.85;;;;;;;22.40;95.99;99703.59;5052066;28;20028;-77
2023/07/02 06:07:24;;;;;;;9.85;7.85;;;;;;;22.42;93.56;99693.91;5052216;28;20455;-74
2023/07/02 06:09:49;;;;;;;10.38;7.45;;;;;;;22.36;94.15;99696.66;5070534;28;20429;-75
2023/07/02 06:12:14;;;;;;;8.60;7.38;;;;;;;22.34;95.04;99693.19;5070635;28;20085;-74
2023/07/02 06:14:40;;;;;;;8.98;7.38;;;;;;;22.22;94.54;99683.84;5069308;28;20493;-77
2023/07/02 06:17:07;;;;;;;11.38;7.07;;;;;;;22.42;93.83;99720.22;5034698;28;20115;-77
2023/07/02 06:19:33;;;;;;;10.38;6.68;;;;;;;22.49;92.38;99718.28;5070303;28;20032;-77
2023/07/02 06:21:58;;;;;;;10.68;6.35;;;;;;;22.25;93.69;99672.38;5070123;28;20034;-74
2023/07/02 06:24:44;;;;;;;8.50;6.65;;;;;;;22.55;93.14;99709.41;5070121;28;20453;-77
2023/07/02 06:27:09;;;;;;;8.15;6.65;;;;;;;22.74;91.33;99708.03;5042558;28;20075;-72
2023/07/02 06:29:35;;;;;;;9.57;7.18;;;;;;;22.74;92.45;99700.16;5047773;28;20113;-76
2023/07/02 06:32:00;;;;;;;9.48;6.65;;;;;;;22.88;91.88;99717.31;5047792;28;20492;-75
2023/07/02 06:34:26;;;;;;;13.80;6.82;;;;;;;23.00;91.52;99709.09;5044388;28;20033;-76
2023/07/02 06:36:51;;;;;;;13.77;6.65;;;;;;;23.13;89.00;99706.16;5035348;28;20029;-73
2023/07/02 06:39:17;;;;;;;8.85;6.32;;;;;;;23.31;88.82;99741.69;5036814;28;20084;-73
2023/07/02 06:41:42;;;;;;;10.73;6.60;;;;;;;23.32;89.06;99736.38;5036524;28;20040;-76
2023/07/02 06:44:07;;;;;;;10.02;6.93;;;;;;;23.42;89.90;99731.72;5035095;28;20087;-74
2023/07/02 06:46:33;;;;;;;10.50;7.15;;;;;;;23.56;92.09;99744.50;5021406;28;20102;-74
2023/07/02 06:49:00;;;;;;;11.98;10.07;;;;;;;23.29;98.18;99744.38;5036772;28;20021;-74
2023/07/02 06:51:26;;;;;;;14.75;12.68;;;;;;;23.17;100.00;99734.19;5000190;28;20063;-74
2023/07/02 06:53:52;;;;;;;13.95;12.40;;;;;;;23.03;100.00;99702.91;5036678;28;20029;-72
2023/07/02 06:56:17;;;;;;;16.83;14.10;;;;;;;23.10;100.00;99760.63;5037069;28;20121;-71
2023/07/02 06:58:43;;;;;;;12.55;11.38;;;;;;;23.15;94.71;99764.91;5066230;28;20497;-75
2023/07/02 07:01:09;;;;;;;13.27;11.77;;;;;;;23.30;94.33;99767.16;5069490;28;20029;-73
2023/07/02 07:03:37;;;;;;;13.80;12.30;;;;;;;23.35;93.36;99728.41;5066817;28;20020;-73
2023/07/02 07:06:03;;;;;;;15.80;12.32;;;;;;;23.15;94.23;99723.63;5069063;28;20416;-75
2023/07/02 07:08:29;;;;;;;14.73;13.20;;;;;;;23.21;94.35;99754.25;5069414;28;20028;-71
2023/07/02 07:10:55;;;;;;;15.63;14.02;;;;;;;22.98;97.13;99739.88;5068405;28;20067;-72
2023/07/02 07:13:20;;;;;;;15.23;13.63;;;;;;;22.86;98.83;99714.75;5070219;28;20033;-71
2023/07/02 07:15:46;;;;;;;17.92;16.20;;;;;;;22.65;100.00;99675.84;5084702;28;20482;-73
2023/07/02 07:18:11;;;;;;;19.27;15.55;;;;;;;;;;5089131;28;20107;-74
2023/07/02 07:20:39;;;;;;;19.60;15.85;;;;;;;23.13;100.00;99728.09;5089779;28;20120;-74
2023/07/02 07:23:05;;;;;;;19.63;17.33;;;;;;;23.05;100.00;99691.44;5089590;28;20495;-73
2023/07/02 07:25:31;;;;;;;19.23;17.33;;;;;;;23.37;100.00;99715.19;5088874;28;20020;-73
2023/07/02 07:27:59;;;;;;;18.60;16.88;;;;;;;23.47;100.00;99713.16;5093835;28;20024;-76
2023/07/02 07:30:25;;;;;;;18.90;17.05;;;;;;;23.52;100.00;99713.88;5110930;28;20110;-74
2023/07/02 07:32:51;;;;;;;19.30;17.30;;;;;;;23.70;100.00;99720.38;5093128;28;20196;-78
2023/07/02 07:35:18;;;;;;;22.63;19.17;;;;;;;23.78;100.00;99725.44;5093187;28;20020;-74
2023/07/02 07:37:44;;;;;;;21.77;19.50;;;;;;;23.82;100.00;99713.91;5093223;28;20028;-76
2023/07/02 07:40:10;;;;;;;23.92;20.05;;;;;;;23.62;100.00;99688.13;5092895;28;20036;-72
2023/07/02 07:42:35;;;;;;;22.23;17.98;;;;;;;23.82;100.00;99727.06;5075141;28;20466;-74
2023/07/02 07:45:05;;;;;;;20.35;18.25;;;;;;;23.87;100.00;99736.56;5093367;28;20107;-73
2023/07/02 07:47:31;;;;;;;20.23;17.85;;;;;;;23.94;100.00;99734.66;5092601;28;20024;-77
2023/07/02 07:49:56;;;;;;;23.85;18.55;;;;;;;23.93;100.00;99735.56;5092995;28;20119;-80
2023/07/02 07:52:21;;;;;;;18.92;16.98;;;;;;;24.04;100.00;99730.81;5074588;28;20383;-75
2023/07/02 07:54:47;;;;;;;20.02;18.00;;;;;;;24.08;100.00;99718.41;5092849;28;20028;-78
2023/07/02 07:57:14;;;;;;;20.10;17.17;;;;;;;24.02;100.00;99724.72;5092684;28;20073;-75
2023/07/02 07:59:40;;;;;;;19.42;17.35;;;;;;;23.97;100.00;99720.50;5092137;28;20039;-75
2023/07/02 08:02:05;;;;;;;17.17;15.40;;;;;;;24.03;100.00;99718.53;5092185;28;20024;-71
2023/07/02 08:04:31;;;;;;;16.00;12.48;;;;;;;24.11;100.00;99709.53;5092024;28;20484;-70
2023/07/02 08:06:56;;;;;;;14.05;12.45;;;;;;;24.22;100.00;99717.97;5092423;28;20027;-73
2023/07/02 08:09:23;;;;;;;14.45;11.75;;;;;;;24.37;97.73;99716.63;5092522;28;20020;-70
2023/07/02 08:11:49;;;;;;;14.07;12.65;;;;;;;24.52;97.29;99699.41;5092324;28;20055;-75
2023/07/02 08:14:14;;;;;;;13.60;12.13;;;;;;;24.71;94.93;99708.50;5091993;28;20115;-73
2023/07/02 08:16:40;;;;;;;13.07;11.77;;;;;;;24.86;96.01;99716.78;5092069;28;20050;-75
2023/07/02 08:19:05;;;;;;;15.73;12.55;;;;;;;24.89;94.99;99713.22;5092076;28;20398;-74
2023/07/02 08:21:31;;;;;;;13.68;12.38;;;;;;;24.84;92.48;99726.56;5092536;28;20375;-71
2023/07/02 08:23:57;;;;;;;23.38;12.98;;;;;;;24.66;96.85;99720.97;5073939;28;20115;-76
2023/07/02 08:26:23;;;;;;;14.88;12.25;;;;;;;24.69;92.04;99727.94;5092142;28;20020;-76
2023/07/02 08:28:48;;;;;;;13.00;11.70;;;;;;;24.82;91.15;99712.53;5074141;28;20104;-76
2023/07/02 08:31:14;;;;;;;12.38;10.60;;;;;;;24.98;88.20;99718.16;5091955;28;20651;-77
2023/07/02 08:33:39;;;;;;;17.60;11.20;;;;;;;25.14;89.25;99708.78;5090090;28;20437;-72
2023/07/02 08:36:05;;;;;;;16.42;11.05;;;;;;;25.16;86.33;99708.69;5070746;28;20032;-75
2023/07/02 08:38:30;;;;;;;11.20;10.10;;;;;;;25.19;84.13;99690.97;5101184;28;20050;-75
2023/07/02 08:40:55;;;;;;;15.07;10.43;;;;;;;25.30;84.71;99697.66;5091815;28;20122;-76
2023/07/02 08:43:21;;;;;;;14.43;10.52;;;;;;;25.41;85.11;99697.28;5091229;28;20036;-73
2023/07/02 08:45:47;;;;;;;13.23;10.82;;;;;;;25.46;85.38;99698.84;5071481;28;20020;-74
2023/07/02 08:48:12;;;;;;;12.80;10.35;;;;;;;25.48;88.24;99688.22;5072071;28;20479;-74
2023/07/02 08:50:38;;;;;;;14.38;9.63;;;;;;;25.64;85.32;99692.00;5071938;28;20043;-73
2023/07/02 08:53:03;;;;;;;12.10;10.02;;;;;;;25.84;85.08;99699.19;5069559;28;20098;-75
2023/07/02 08:55:29;;;;;;;12.93;9.07;;;;;;;25.95;78.54;99690.81;5071480;28;20043;-75
2023/07/02 08:57:59;;;;;;;11.35;9.00;;;;;;;25.92;76.57;99684.78;5065981;28;20039;-72
2023/07/02 09:00:25;;;;;;;10.95;9.27;;;;;;;25.88;77.08;99688.47;5058857;28;20028;-74
2023/07/02 09:02:51;;;;;;;10.98;9.27;;;;;;;26.03;77.41;99682.56;5051471;28;20376;-76
2023/07/02 09:05:17;;;;;;;9.90;8.77;;;;;;;26.19;77.29;99689.94;5051847;28;20062;-72
2023/07/02 09:07:47;;;;;;;9.27;8.32;;;;;;;26.34;76.63;99691.09;5051867;28;20028;-75
2023/07/02 09:10:26;;;;;;;12.35;8.88;;;;;;;26.27;78.46;99687.81;5051632;28;20182;-74
2023/07/02 09:13:10;;;;;;;12.43;9.48;;;;;;;26.20;74.61;99657.28;5033412;28;20414;-75
2023/07/02 09:15:37;;;;;;;11.43;9.25;;;;;;;26.52;74.11;99678.88;5051498;28;20190;-73
2023/07/02 09:18:02;;;;;;;10.57;9.50;;;;;;;26.34;78.70;99643.47;5051563;28;20014;-76
2023/07/02 09:20:34;;;;;;;11.35;9.75;;;;;;;26.49;77.47;99666.63;5051473;28;20029;-73
2023/07/02 09:23:00;;;;;;;10.50;9.30;;;;;;;26.37;75.66;99675.97;5051323;28;20056;-75
2023/07/02 09:25:38;;;;;;;11.68;8.75;;;;;;;26.39;76.08;99671.44;5051746;28;20087;-76
2023/07/02 09:28:17;;;;;;;13.55;9.45;;;;;;;26.31;74.42;99645.31;5051488;28;20509;-72
2023/07/02 09:30:54;;;;;;;12.10;8.90;;;;;;;26.67;74.79;99661.47;5051154;28;20083;-72
2023/07/02 09:33:20;;;;;;;9.80;8.80;;;;;;;26.81;73.17;99664.44;5051088;28;20032;-72
2023/07/02 09:35:45;;;;;;;10.40;9.00;;;;;;;26.92;71.14;99656.03;5050810;28;20025;-74
2023/07/02 09:38:13;;;;;;;10.18;8.95;;;;;;;26.84;75.48;99656.34;5051336;28;20021;-75
2023/07/02 09:40:48;;;;;;;11.90;9.63;;;;;;;26.91;75.77;99656.97;5048747;28;20045;-76
2023/07/02 09:43:15;;;;;;;14.45;8.90;;;;;;;27.03;74.34;99650.25;5051282;28;20025;-77
2023/07/02 09:45:44;;;;;;;11.10;8.63;;;;;;;27.10;75.27;99639.34;5051280;28;20040;-75
2023/07/02 09:48:13;;;;;;;11.15;9.10;;;;;;;27.29;74.31;99644.66;5050759;28;20024;-75
2023/07/02 09:50:40;;;;;;;12.77;8.23;;;;;;;27.32;71.74;99664.84;5050845;28;20118;-75
2023/07/02 09:53:05;;;;;;;10.55;8.60;;;;;;;27.41;71.92;99659.13;5032049;28;20041;-75
2023/07/02 09:55:32;;;;;;;10.10;8.52;;;;;;;27.44;71.55;99658.13;5050763;28;20051;-74
2023/07/02 09:57:57;;;;;;;11.70;8.60;;;;;;;27.45;70.21;99657.22;5050695;28;20025;-73
2023/07/02 10:00:23;;;;;;;11.05;8.77;;;;;;;27.54;69.67;99662.09;5050746;28;20029;-74
2023/07/02 10:02:52;;;;;;;15.07;8.30;;;;;;;27.69;72.38;99657.88;5050421;28;20028;-73
2023/07/02 10:05:30;;;;;;;;;;;;;;;27.80;70.64;99649.38;5050009;28;20115;-74
2023/07/02 10:07:57;;;;;;;10.10;8.20;;;;;;;27.99;67.88;99648.50;5050668;28;19919;-75
2023/07/02 10:10:30;;;;;;;13.45;8.20;;;;;;;28.11;68.70;99649.75;5050454;28;20116;-75
2023/07/02 10:12:56;;;;;;;12.00;7.40;;;;;;;28.03;65.82;99663.34;5050828;28;20029;-72
2023/07/02 10:15:26;;;;;;;9.70;7.28;;;;;;;28.12;62.84;99660.28;5050144;28;20112;-79
2023/07/02 10:18:00;;;;;;;9.07;8.02;;;;;;;28.12;64.77;99649.66;5050649;28;20036;-76
2023/07/02 10:20:35;;;;;;;10.80;7.22;;;;;;;28.18;66.39;99645.84;5029431;28;20021;-73
2023/07/02 10:23:02;;;;;;;9.02;7.15;;;;;;;27.95;67.41;99617.75;5050188;28;20396;-76
2023/07/02 10:25:46;;;;;;;10.95;7.82;;;;;;;27.85;67.30;99647.41;5050595;28;20377;-77
2023/07/02 10:28:20;;;;;;;8.90;7.57;;;;;;;27.84;68.71;99647.44;5050389;28;20036;-73
2023/07/02 10:30:45;;;;;;;13.43;7.85;;;;;;;27.62;66.94;99632.56;5050374;28;20033;-76
2023/07/02 10:33:15;;;;;;;14.52;7.10;;;;;;;27.66;64.24;99626.19;5050350;28;20037;-75
2023/07/02 10:35:44;;;;;;;10.82;7.78;;;;;;;27.75;62.83;99638.13;5050180;28;20036;-76
2023/07/02 10:38:17;;;;;;;9.30;7.50;;;;;;;27.79;64.55;99639.72;5049950;28;20029;-75
2023/07/02 10:40:43;;;;;;;11.70;8.20;;;;;;;27.84;67.07;99642.13;5050354;28;20500;-75
2023/07/02 10:43:08;;;;;;;11.55;7.78;;;;;;;27.70;65.57;99638.38;5050306;28;20041;-74
2023/07/02 10:45:35;;;;;;;12.20;7.85;;;;;;;27.41;67.09;99626.50;5050281;28;20103;-73
2023/07/02 10:48:08;;;;;;;12.02;7.60;;;;;;;27.46;66.93;99639.53;5050379;28;20111;-75
2023/07/02 10:50:34;;;;;;;9.88;7.88;;;;;;;27.37;67.99;99646.09;5050348;28;20098;-75
2023/07/02 10:53:00;;;;;;;10.20;7.78;;;;;;;27.30;69.82;99634.88;5049943;28;20037;-77
2023/07/02 10:55:27;;;;;;;10.63;8.25;;;;;;;27.13;71.76;99648.94;5050351;28;20025;-75
2023/07/02 10:58:06;;;;;;;14.52;9.57;;;;;;;26.96;73.10;99625.84;5050353;28;20033;-74
2023/07/02 11:00:32;;;;;;;13.50;9.60;;;;;;;26.70;74.82;99650.78;5050399;28;20052;-76
2023/07/02 11:02:59;;;;;;;12.25;9.18;;;;;;;26.38;76.13;99651.22;5053584;28;20471;-72
2023/07/02 11:05:25;;;;;;;10.98;8.15;;;;;;;26.24;78.41;99653.56;5054102;28;20033;-77
2023/07/02 11:07:56;;;;;;;11.65;8.63;;;;;;;26.22;80.06;99666.88;5053844;28;20039;-76
2023/07/02 11:10:23;;;;;;;10.25;8.95;;;;;;;25.94;83.74;99661.78;5053912;28;20159;-75
2023/07/02 11:12:48;;;;;;;14.90;9.55;;;;;;;25.55;85.52;99621.00;5054091;28;20032;-72
2023/07/02 11:15:15;;;;;;;12.25;8.52;;;;;;;25.82;85.55;99665.75;5053518;28;20035;-76
2023/07/02 11:17:41;;;;;;;10.75;9.50;;;;;;;25.88;86.02;99657.59;5053595;28;20028;-75
2023/07/02 11:20:12;;;;;;;10.70;8.95;;;;;;;25.56;86.94;99632.41;5053559;28;20396;-76